Time;durP1;ratioP1;P1;durP2;ratioP2;P2;SDS_P1;SDS_P2;PMS_P1;PMS_P2;Temp;Humidity;BMP_temperature;BMP_pressure;BME280_temperature;BME280_humidity;BME280_pressure;Samples;Min_cycle;Max_cycle;Signal;HPM_P1;HPM_P2
2023/06/09 00:02:01;;;;;;;10.93;6.90;;;;;;;18.66;65.73;100064.41;10290978;28;20050;-62
2023/06/09 00:07:03;;;;;;;12.18;6.18;;;;;;;18.58;65.51;100068.31;10301594;28;20133;-62
2023/06/09 00:12:05;;;;;;;10.18;5.72;;;;;;;18.49;65.20;100067.00;10292222;28;20042;-62
2023/06/09 00:17:09;;;;;;;8.48;6.05;;;;;;;18.34;65.39;100068.28;10296679;28;20937;-62
2023/06/09 00:22:13;;;;;;;9.35;6.50;;;;;;;18.29;65.40;100065.44;10275727;28;20125;-62
2023/06/09 00:27:15;;;;;;;9.35;6.40;;;;;;;18.22;65.61;100072.88;10287627;28;20078;-61
2023/06/09 00:32:16;;;;;;;7.93;6.22;;;;;;;18.11;65.84;100081.81;10291499;28;20054;-62
2023/06/09 00:37:18;;;;;;;8.20;6.38;;;;;;;18.10;65.66;100072.03;10285417;28;20418;-62
2023/06/09 00:42:19;;;;;;;9.60;6.75;;;;;;;18.04;65.80;100077.31;10299826;28;20047;-62
2023/06/09 00:47:21;;;;;;;9.23;6.47;;;;;;;18.00;65.86;100072.59;10289715;28;20520;-61
2023/06/09 00:52:23;;;;;;;7.72;6.35;;;;;;;18.00;66.05;100080.75;10291280;28;20045;-62
2023/06/09 00:57:24;;;;;;;10.35;6.20;;;;;;;17.95;66.10;100078.72;10296357;28;20051;-62
2023/06/09 01:02:26;;;;;;;8.27;5.85;;;;;;;17.91;66.02;100088.41;10283120;28;20046;-61
2023/06/09 01:07:41;;;;;;;7.65;6.70;;;;;;;17.91;65.96;100076.69;10284575;28;20162;-61
2023/06/09 01:12:50;;;;;;;11.05;7.13;;;;;;;17.88;66.33;100088.88;10293423;28;20367;-61
2023/06/09 01:17:56;;;;;;;8.50;7.25;;;;;;;17.76;66.49;100086.06;10292645;28;20058;-62
2023/06/09 01:23:06;;;;;;;9.83;6.47;;;;;;;17.75;66.52;100087.13;10285302;28;20051;-62
2023/06/09 01:28:16;;;;;;;9.00;6.55;;;;;;;17.80;66.06;100081.00;10289167;28;20047;-62
2023/06/09 01:33:22;;;;;;;8.35;5.55;;;;;;;17.65;66.47;100073.25;10294353;28;20038;-62
2023/06/09 01:38:25;;;;;;;8.80;6.77;;;;;;;17.60;66.42;100070.41;10291443;28;20034;-62
2023/06/09 01:43:26;;;;;;;7.55;6.13;;;;;;;17.58;66.30;100070.63;10282614;28;20044;-62
2023/06/09 01:48:57;;;;;;;9.18;6.13;;;;;;;17.60;66.17;100064.97;10287867;28;20069;-62
2023/06/09 01:54:09;;;;;;;11.57;5.78;;;;;;;17.54;66.41;100063.16;10289200;28;20053;-62
2023/06/09 01:59:16;;;;;;;7.97;5.93;;;;;;;17.49;66.21;100061.09;10292037;28;20049;-63
2023/06/09 02:04:22;;;;;;;10.35;6.95;;;;;;;17.47;66.28;100055.06;10294930;28;20520;-63
2023/06/09 02:09:24;;;;;;;7.77;6.57;;;;;;;17.46;66.28;100064.31;10290313;28;20117;-63
2023/06/09 02:14:33;;;;;;;8.85;6.47;;;;;;;17.43;66.33;100060.13;10261852;28;20668;-63
2023/06/09 02:19:38;;;;;;;7.90;5.88;;;;;;;17.33;66.59;100064.47;10289336;28;20046;-62
2023/06/09 02:24:40;;;;;;;8.65;6.45;;;;;;;17.38;66.49;100064.63;10292192;28;20129;-62
2023/06/09 02:29:41;;;;;;;9.45;6.82;;;;;;;17.42;66.53;100068.53;10287686;28;20138;-62
2023/06/09 02:34:45;;;;;;;8.13;6.60;;;;;;;17.38;66.60;100056.47;10290034;28;20039;-62
2023/06/09 02:39:46;;;;;;;11.55;6.82;;;;;;;17.34;66.76;100057.97;10297148;28;20049;-62
2023/06/09 02:44:48;;;;;;;12.52;6.90;;;;;;;17.28;67.02;100056.16;10292792;28;20478;-62
2023/06/09 02:49:50;;;;;;;12.63;7.13;;;;;;;17.18;66.76;100060.25;10291228;28;20049;-62
2023/06/09 02:54:51;;;;;;;9.00;6.68;;;;;;;17.19;66.97;100056.47;10291320;28;20055;-62
2023/06/09 02:59:53;;;;;;;10.63;7.10;;;;;;;17.20;66.86;100062.72;10284246;28;20046;-62
2023/06/09 03:04:55;;;;;;;13.40;6.47;;;;;;;17.13;67.30;100064.69;10292580;28;20050;-62
2023/06/09 03:09:56;;;;;;;12.63;7.13;;;;;;;17.13;67.02;100067.41;10282317;28;20054;-62
2023/06/09 03:14:57;;;;;;;11.18;7.80;;;;;;;17.10;67.28;100076.84;10291520;28;20059;-61
2023/06/09 03:19:59;;;;;;;10.63;7.55;;;;;;;17.04;67.31;100072.28;10285307;28;20367;-61
2023/06/09 03:25:01;;;;;;;11.82;7.15;;;;;;;17.07;67.30;100073.75;10269967;28;20375;-62
2023/06/09 03:30:03;;;;;;;12.25;6.40;;;;;;;17.05;66.93;100073.97;10285590;28;20520;-61
2023/06/09 03:35:05;;;;;;;9.00;7.15;;;;;;;17.02;67.43;100072.53;10289075;28;20050;-62
2023/06/09 03:40:07;;;;;;;11.00;6.60;;;;;;;16.98;67.18;100076.75;10283183;28;20058;-61
2023/06/09 03:45:09;;;;;;;8.25;7.30;;;;;;;16.98;67.50;100078.63;10288507;28;20105;-62
2023/06/09 03:50:11;;;;;;;11.63;8.00;;;;;;;17.02;67.25;100074.41;10290956;28;20051;-61
2023/06/09 03:55:12;;;;;;;14.02;6.32;;;;;;;16.97;67.28;100083.22;10281630;28;20094;-61
2023/06/09 04:00:16;;;;;;;8.82;5.82;;;;;;;16.99;67.35;100080.31;10294524;28;20039;-61
2023/06/09 04:05:17;;;;;;;8.63;6.07;;;;;;;16.95;67.26;100082.63;10287403;28;20111;-61
2023/06/09 04:10:19;;;;;;;8.40;6.57;;;;;;;16.88;67.47;100091.91;10285806;28;20521;-61
2023/06/09 04:15:20;;;;;;;10.90;7.10;;;;;;;16.90;67.40;100097.94;10276052;28;20042;-61
2023/06/09 04:20:22;;;;;;;8.00;6.68;;;;;;;16.97;67.65;100099.53;10296697;28;20379;-61
2023/06/09 04:25:27;;;;;;;8.82;6.43;;;;;;;17.10;67.41;100101.28;10281124;28;20601;-61
2023/06/09 04:30:29;;;;;;;10.48;7.07;;;;;;;17.22;67.51;100106.81;10290341;28;20097;-61
2023/06/09 04:35:31;;;;;;;8.82;6.57;;;;;;;17.31;67.58;100112.75;10288298;28;20054;-61
2023/06/09 04:40:33;;;;;;;10.48;6.70;;;;;;;17.39;67.27;100107.03;10294385;28;20038;-61
2023/06/09 04:45:34;;;;;;;15.02;6.75;;;;;;;17.46;67.33;100113.22;10284427;28;20042;-61
2023/06/09 04:50:37;;;;;;;9.52;6.85;;;;;;;17.56;67.16;100115.41;10291906;28;20046;-61
2023/06/09 04:55:40;;;;;;;7.93;6.35;;;;;;;17.65;67.31;100119.44;10282387;28;20434;-61
2023/06/09 05:00:42;;;;;;;10.23;7.38;;;;;;;17.77;67.23;100114.94;10296695;28;20051;-61
2023/06/09 05:05:43;;;;;;;8.07;7.05;;;;;;;17.83;67.35;100114.03;10279658;28;20040;-60
2023/06/09 05:10:45;;;;;;;10.68;6.85;;;;;;;17.94;67.35;100117.84;10285727;28;20062;-61
2023/06/09 05:15:47;;;;;;;8.93;7.30;;;;;;;18.05;67.41;100110.81;10280968;28;20433;-65
2023/06/09 05:20:48;;;;;;;7.78;6.78;;;;;;;18.16;67.47;100114.63;10297137;28;20085;-61
2023/06/09 05:25:50;;;;;;;8.18;6.47;;;;;;;18.35;67.19;100115.41;10289265;28;20038;-62
2023/06/09 05:30:52;;;;;;;7.97;5.90;;;;;;;18.44;67.35;100116.69;10276419;28;20069;-62
2023/06/09 05:35:53;;;;;;;7.53;6.05;;;;;;;18.59;67.08;100108.91;10286197;28;20532;-61
2023/06/09 05:40:55;;;;;;;7.90;5.53;;;;;;;18.69;66.81;100111.06;10284918;28;20046;-61
2023/06/09 05:45:57;;;;;;;7.70;5.90;;;;;;;18.80;66.61;100109.47;10281327;28;20073;-60
2023/06/09 05:50:59;;;;;;;5.85;5.30;;;;;;;19.01;66.38;100125.19;10278461;28;20477;-61
2023/06/09 05:56:00;;;;;;;7.75;5.72;;;;;;;19.22;66.09;100118.31;10288295;28;20046;-62
2023/06/09 06:01:03;;;;;;;6.90;5.15;;;;;;;19.44;65.65;100111.41;10287912;28;20035;-61
2023/06/09 06:06:04;;;;;;;6.65;4.82;;;;;;;19.59;65.48;100115.28;10283965;28;20046;-61
2023/06/09 06:11:07;;;;;;;9.75;4.70;;;;;;;19.83;64.72;100117.13;10283906;28;20046;-61
2023/06/09 06:16:08;;;;;;;6.97;4.65;;;;;;;20.01;64.19;100128.69;10290303;28;20087;-61
2023/06/09 06:21:11;;;;;;;5.32;4.38;;;;;;;20.31;63.39;100130.31;10283502;28;20042;-61
2023/06/09 06:26:13;;;;;;;7.63;4.40;;;;;;;20.54;62.54;100134.81;10291350;28;20071;-60
2023/06/09 06:31:16;;;;;;;8.02;4.40;;;;;;;20.80;61.65;100132.53;10278262;28;20046;-61
2023/06/09 06:36:21;;;;;;;5.72;4.40;;;;;;;21.01;60.96;100136.41;10278677;28;20058;-62
2023/06/09 06:41:22;;;;;;;4.45;3.75;;;;;;;21.19;60.35;100138.84;10269570;28;20066;-62
2023/06/09 06:46:24;;;;;;;8.70;4.18;;;;;;;21.33;60.05;100146.72;10271860;28;20530;-62
2023/06/09 06:51:25;;;;;;;3.55;3.25;;;;;;;21.45;58.89;100141.16;10280091;28;20073;-61
2023/06/09 06:56:27;;;;;;;4.45;3.95;;;;;;;21.58;58.24;100149.81;10288538;28;20390;-61
2023/06/09 07:01:30;;;;;;;5.35;3.35;;;;;;;21.76;57.77;100140.47;10265619;28;20425;-60
2023/06/09 07:06:32;;;;;;;6.30;3.50;;;;;;;21.98;57.23;100150.56;10269538;28;20490;-61
2023/06/09 07:11:33;;;;;;;10.73;4.90;;;;;;;22.15;56.56;100150.44;10279069;28;20383;-60
2023/06/09 07:16:35;;;;;;;5.78;3.42;;;;;;;22.34;55.87;100153.69;10272266;28;20506;-60
2023/06/09 07:21:36;;;;;;;3.92;3.53;;;;;;;22.41;55.63;100154.28;10282258;28;20489;-60
2023/06/09 07:26:37;;;;;;;5.70;3.72;;;;;;;22.61;54.96;100159.16;10286995;28;20655;-62
2023/06/09 07:31:39;;;;;;;4.25;3.47;;;;;;;22.76;54.87;100159.25;10294546;28;20047;-60
2023/06/09 07:36:41;;;;;;;5.65;3.75;;;;;;;22.92;54.54;100170.34;10289860;28;20050;-60
2023/06/09 07:41:42;;;;;;;3.75;3.40;;;;;;;23.07;54.17;100159.53;10289747;28;20120;-61
2023/06/09 07:46:44;;;;;;;5.45;3.38;;;;;;;23.23;53.93;100157.72;10284125;28;20046;-61
2023/06/09 07:51:49;;;;;;;7.22;4.28;;;;;;;23.43;53.19;100159.75;10294779;28;20047;-60
2023/06/09 07:56:50;;;;;;;5.18;3.45;;;;;;;23.62;53.52;100151.91;10267684;28;20065;-60
2023/06/09 08:01:52;;;;;;;6.68;3.35;;;;;;;23.75;52.41;100151.38;10295554;28;20053;-60
2023/06/09 08:06:54;;;;;;;5.57;3.90;;;;;;;23.97;52.31;100146.84;10291855;28;20520;-59
2023/06/09 08:11:55;;;;;;;7.13;3.58;;;;;;;24.17;51.59;100146.91;10290792;28;20090;-59
2023/06/09 08:16:56;;;;;;;3.55;2.80;;;;;;;24.47;50.54;100142.53;10296672;28;20057;-59
2023/06/09 08:21:58;;;;;;;2.88;2.45;;;;;;;24.72;49.86;100145.34;10289872;28;20049;-59
2023/06/09 08:26:59;;;;;;;3.15;2.72;;;;;;;24.90;48.92;100141.19;10287466;28;20625;-59
2023/06/09 08:32:01;;;;;;;4.15;3.25;;;;;;;25.14;48.85;100135.94;10296070;28;20057;-59
2023/06/09 08:37:03;;;;;;;3.25;2.58;;;;;;;25.36;47.59;100126.56;10281553;28;20059;-59
2023/06/09 08:42:13;;;;;;;9.95;3.63;;;;;;;25.55;47.62;100125.91;10289488;28;20098;-59
2023/06/09 08:47:19;;;;;;;6.63;2.58;;;;;;;25.74;46.96;100118.69;10279911;28;20054;-60
2023/06/09 08:52:21;;;;;;;4.20;2.47;;;;;;;25.96;46.63;100115.56;10286004;28;20047;-60
2023/06/09 08:57:23;;;;;;;3.08;2.70;;;;;;;26.07;46.01;100113.59;10283404;28;20058;-60
2023/06/09 09:02:25;;;;;;;3.30;2.90;;;;;;;26.31;45.38;100110.94;10296524;28;20038;-60
2023/06/09 09:07:27;;;;;;;5.38;2.53;;;;;;;26.42;44.98;100101.47;10289160;28;20062;-61
2023/06/09 09:12:58;;;;;;;5.55;2.88;;;;;;;26.63;44.15;100102.16;10282559;28;20049;-61
2023/06/09 09:18:00;;;;;;;3.97;2.67;;;;;;;26.75;44.15;100100.94;10288036;28;20061;-59
2023/06/09 09:23:03;;;;;;;2.88;2.67;;;;;;;26.84;43.53;100096.47;10287179;28;20098;-59
2023/06/09 09:28:09;;;;;;;4.65;2.60;;;;;;;27.00;43.41;100099.88;10280474;28;20050;-59
2023/06/09 09:33:13;;;;;;;3.72;2.33;;;;;;;27.10;43.17;100097.00;10274524;28;20038;-64
2023/06/09 09:38:21;;;;;;;5.72;2.55;;;;;;;27.29;42.58;100086.03;10282390;28;20486;-64
2023/06/09 09:43:29;;;;;;;5.75;2.97;;;;;;;27.47;42.09;100079.75;10290347;28;20054;-63
2023/06/09 09:48:33;;;;;;;5.22;2.70;;;;;;;27.61;41.54;100084.56;10289755;28;20062;-64
2023/06/09 09:53:35;;;;;;;3.22;2.85;;;;;;;27.71;41.99;100092.72;10273770;28;20073;-64
2023/06/09 09:58:40;;;;;;;3.00;2.80;;;;;;;28.00;41.27;100080.72;10286315;28;20522;-64
2023/06/09 10:03:43;;;;;;;3.90;3.00;;;;;;;28.15;40.66;100074.97;10289503;28;20054;-65
2023/06/09 10:08:46;;;;;;;2.90;2.70;;;;;;;28.28;40.34;100067.84;10289555;28;20038;-64
2023/06/09 10:13:48;;;;;;;2.53;2.28;;;;;;;28.50;39.66;100067.22;10275363;28;20525;-64
2023/06/09 10:18:50;;;;;;;2.80;2.10;;;;;;;28.77;39.88;100068.41;10278373;28;20043;-58
2023/06/09 10:23:52;;;;;;;3.03;2.17;;;;;;;28.96;39.16;100055.31;10283495;28;20050;-59
2023/06/09 10:28:54;;;;;;;2.10;1.90;;;;;;;29.14;38.74;100059.16;10280709;28;20079;-58
2023/06/09 10:33:55;;;;;;;10.88;2.67;;;;;;;29.32;37.68;100054.63;10284262;28;20116;-58
2023/06/09 10:38:57;;;;;;;3.88;1.80;;;;;;;29.48;37.27;100051.53;10277299;28;20053;-58
2023/06/09 10:44:17;;;;;;;5.32;2.47;;;;;;;29.46;35.95;100043.53;10285054;28;20402;-58
2023/06/09 10:49:25;;;;;;;2.47;2.08;;;;;;;29.67;35.74;100032.81;10284805;28;20141;-58
2023/06/09 10:54:29;;;;;;;5.47;1.83;;;;;;;29.72;35.93;100031.91;10288089;28;20042;-58
2023/06/09 10:59:31;;;;;;;5.25;3.88;;;;;;;30.05;35.67;100036.09;10289716;28;20050;-59
2023/06/09 11:04:43;;;;;;;2.50;2.22;;;;;;;30.28;35.36;100030.56;10298471;28;20058;-58
2023/06/09 11:09:50;;;;;;;3.83;2.20;;;;;;;30.50;34.55;100015.88;10298551;28;20055;-58
2023/06/09 11:14:57;;;;;;;3.78;2.03;;;;;;;30.64;34.11;100019.38;10291571;28;20081;-59
2023/06/09 11:20:18;;;;;;;3.83;2.13;;;;;;;30.78;34.10;100024.00;10292348;28;20054;-58
2023/06/09 11:25:19;;;;;;;4.13;2.53;;;;;;;30.99;34.11;100008.44;10292289;28;20062;-58
2023/06/09 11:30:25;;;;;;;2.88;2.17;;;;;;;31.04;32.72;100004.69;10287658;28;20042;-58
2023/06/09 11:35:27;;;;;;;4.45;2.47;;;;;;;31.22;33.25;100002.78;10293199;28;20043;-58
2023/06/09 11:40:31;;;;;;;3.58;2.00;;;;;;;31.27;33.20;99985.97;10293870;28;20043;-58
2023/06/09 11:45:34;;;;;;;3.25;2.10;;;;;;;31.42;32.62;99981.94;10290594;28;20058;-58
2023/06/09 11:50:44;;;;;;;5.15;1.75;;;;;;;31.66;32.46;99983.44;10282063;28;20072;-59
2023/06/09 11:55:46;;;;;;;3.95;1.83;;;;;;;31.82;31.73;99985.38;10295324;28;20050;-58
2023/06/09 12:00:49;;;;;;;3.63;1.80;;;;;;;31.93;30.74;99973.91;10281520;28;20042;-58
2023/06/09 12:05:51;;;;;;;2.42;2.22;;;;;;;32.08;30.93;99979.00;10293338;28;20034;-58
2023/06/09 12:10:53;;;;;;;3.03;1.90;;;;;;;32.22;29.53;99987.16;10260801;28;20102;-57
2023/06/09 12:15:54;;;;;;;4.40;1.75;;;;;;;32.25;28.67;99971.75;10293266;28;20049;-56
2023/06/09 12:20:56;;;;;;;1.83;1.38;;;;;;;32.22;28.68;99974.06;10292502;28;20470;-57
2023/06/09 12:26:04;;;;;;;4.55;1.75;;;;;;;32.38;28.13;99962.41;10286970;28;20058;-58
2023/06/09 12:31:07;;;;;;;4.03;1.48;;;;;;;32.35;28.01;99958.34;10285114;28;20046;-57
2023/06/09 12:36:10;;;;;;;3.40;1.50;;;;;;;32.57;27.57;99957.28;10293007;28;20058;-58
2023/06/09 12:41:15;;;;;;;2.10;1.70;;;;;;;32.80;26.98;99946.72;10255198;28;20082;-58
2023/06/09 12:46:27;;;;;;;2.17;1.70;;;;;;;32.99;26.18;99953.81;10288847;28;20593;-58
2023/06/09 12:51:30;;;;;;;2.15;1.52;;;;;;;32.88;27.33;99947.81;10286856;28;20135;-58
2023/06/09 12:56:32;;;;;;;4.55;1.50;;;;;;;33.07;26.49;99954.91;10285522;28;20042;-58
2023/06/09 13:01:33;;;;;;;1.98;1.45;;;;;;;33.31;24.99;99946.72;10286022;28;20055;-59
2023/06/09 13:06:36;;;;;;;2.42;1.38;;;;;;;33.29;24.63;99946.25;10288357;28;20050;-59
2023/06/09 13:11:38;;;;;;;3.13;1.73;;;;;;;33.36;24.73;99940.16;10277621;28;20564;-58
2023/06/09 13:16:39;;;;;;;3.58;1.23;;;;;;;33.34;24.27;99940.50;10273523;28;20499;-58
2023/06/09 13:21:41;;;;;;;1.85;1.40;;;;;;;33.50;24.32;99939.88;10283797;28;20050;-58
2023/06/09 13:26:46;;;;;;;3.00;1.10;;;;;;;33.89;23.47;99932.19;10285876;28;20062;-58
2023/06/09 13:31:48;;;;;;;3.42;1.25;;;;;;;34.13;23.58;99931.44;10286268;28;20390;-58
2023/06/09 13:36:49;;;;;;;2.97;1.58;;;;;;;34.33;22.52;99921.38;10288352;28;20039;-58
2023/06/09 13:41:51;;;;;;;1.55;1.30;;;;;;;34.63;22.66;99910.00;10289158;28;20430;-58
2023/06/09 13:46:52;;;;;;;2.88;1.35;;;;;;;35.01;22.89;99911.63;10282934;28;20142;-58
2023/06/09 13:51:54;;;;;;;8.35;1.27;;;;;;;35.53;22.69;99910.81;10281751;28;20096;-57
2023/06/09 13:56:55;;;;;;;1.42;1.10;;;;;;;36.20;22.06;99904.66;10286751;28;20668;-57
2023/06/09 14:01:57;;;;;;;3.22;1.52;;;;;;;36.24;21.46;99894.38;10283334;28;20050;-57
2023/06/09 14:06:59;;;;;;;4.75;1.35;;;;;;;36.01;21.90;99908.16;10277195;28;20077;-58
2023/06/09 14:12:01;;;;;;;3.30;2.22;;;;;;;35.61;22.33;99900.66;10281811;28;20566;-57
2023/06/09 14:17:02;;;;;;;2.30;2.10;;;;;;;35.01;23.42;99906.03;10292932;28;20061;-56
2023/06/09 14:22:05;;;;;;;3.10;2.30;;;;;;;34.57;24.70;99904.63;10290480;28;20054;-59
2023/06/09 14:27:07;;;;;;;4.90;2.35;;;;;;;34.16;24.99;99900.91;10281366;28;20562;-57
2023/06/09 14:32:08;;;;;;;3.83;2.10;;;;;;;34.78;25.17;99903.75;10279967;28;20047;-57
2023/06/09 14:37:10;;;;;;;6.65;2.05;;;;;;;35.33;24.90;99898.66;10291779;28;20563;-58
2023/06/09 14:42:11;;;;;;;7.18;2.40;;;;;;;35.38;24.40;99903.97;10285028;28;20060;-58
2023/06/09 14:47:13;;;;;;;4.47;2.00;;;;;;;34.73;25.43;99918.72;10284862;28;20050;-58
2023/06/09 14:52:14;;;;;;;2.58;2.38;;;;;;;33.96;25.71;99908.13;10284236;28;20058;-64
2023/06/09 14:57:16;;;;;;;10.52;2.90;;;;;;;33.41;25.85;99912.06;10267787;28;20065;-59
2023/06/09 15:02:17;;;;;;;7.85;3.15;;;;;;;32.88;26.65;99902.44;10287905;28;20057;-58
2023/06/09 15:07:19;;;;;;;2.83;2.38;;;;;;;32.39;27.17;99900.06;10279844;28;20051;-58
2023/06/09 15:12:20;;;;;;;4.57;2.75;;;;;;;32.01;27.82;99892.47;10287997;28;20074;-59
2023/06/09 15:17:21;;;;;;;4.53;2.42;;;;;;;31.69;28.73;99891.88;10284521;28;20042;-58
2023/06/09 15:22:23;;;;;;;5.93;2.72;;;;;;;31.37;29.30;99888.44;10277575;28;20047;-57
2023/06/09 15:27:24;;;;;;;4.65;2.75;;;;;;;31.21;29.38;99888.09;10281573;28;20526;-57
2023/06/09 15:32:26;;;;;;;9.98;2.70;;;;;;;30.99;30.42;99896.59;10282328;28;20485;-58
2023/06/09 15:37:27;;;;;;;3.42;2.50;;;;;;;30.87;30.81;99893.59;10279515;28;20130;-58
2023/06/09 15:42:28;;;;;;;3.10;2.83;;;;;;;30.74;31.18;99879.50;10288683;28;20050;-58
2023/06/09 15:47:30;;;;;;;4.75;2.53;;;;;;;30.73;30.97;99882.59;10286019;28;20601;-58
2023/06/09 15:52:31;;;;;;;3.90;2.90;;;;;;;30.74;31.31;99879.50;10279704;28;20045;-58
2023/06/09 15:57:34;;;;;;;4.30;2.17;;;;;;;30.72;31.21;99867.91;10297438;28;20047;-58
2023/06/09 16:02:35;;;;;;;5.72;2.67;;;;;;;30.72;31.17;99865.16;10294948;28;20549;-57
2023/06/09 16:07:36;;;;;;;4.75;2.70;;;;;;;31.26;31.02;99858.53;10287880;28;20051;-57
2023/06/09 16:12:38;;;;;;;7.43;2.83;;;;;;;32.10;30.23;99861.88;10290788;28;20055;-60
2023/06/09 16:17:39;;;;;;;8.20;2.65;;;;;;;32.95;29.48;99860.94;10287144;28;20049;-60
2023/06/09 16:22:41;;;;;;;3.95;2.80;;;;;;;33.62;28.82;99861.91;10290017;28;20061;-60
2023/06/09 16:27:44;;;;;;;2.90;2.45;;;;;;;34.35;27.41;99857.66;10290383;28;20458;-60
2023/06/09 16:32:46;;;;;;;3.17;2.35;;;;;;;35.24;26.61;99850.47;10266482;28;20065;-60
2023/06/09 16:37:47;;;;;;;3.65;2.10;;;;;;;35.94;25.67;99859.22;10291101;28;20517;-60
2023/06/09 16:42:52;;;;;;;2.53;2.33;;;;;;;36.27;24.90;99855.28;10287389;28;20052;-61
2023/06/09 16:47:55;;;;;;;2.50;2.30;;;;;;;36.70;23.86;99852.72;10283234;28;20105;-60
2023/06/09 16:52:56;;;;;;;2.17;2.08;;;;;;;36.94;23.00;99859.25;10283220;28;20043;-60
2023/06/09 16:57:58;;;;;;;2.72;2.25;;;;;;;37.31;22.70;99863.28;10281770;28;20043;-60
2023/06/09 17:02:59;;;;;;;6.32;2.65;;;;;;;37.68;22.96;99874.06;10291454;28;20133;-60
2023/06/09 17:08:01;;;;;;;5.00;2.70;;;;;;;37.83;22.43;99872.31;10294839;28;20046;-60
2023/06/09 17:13:04;;;;;;;3.28;2.20;;;;;;;37.67;22.15;99868.81;10288006;28;20053;-60
2023/06/09 17:18:05;;;;;;;4.63;2.55;;;;;;;37.80;21.90;99872.25;10295673;28;20160;-60
2023/06/09 17:23:07;;;;;;;5.72;2.63;;;;;;;37.72;22.16;99876.09;10296132;28;20038;-60
2023/06/09 17:28:09;;;;;;;4.65;2.15;;;;;;;37.83;21.72;99882.75;10287733;28;20077;-61
2023/06/09 17:33:11;;;;;;;3.47;2.20;;;;;;;37.79;21.40;99879.84;10293416;28;20058;-62
2023/06/09 17:38:12;;;;;;;2.97;2.35;;;;;;;37.55;21.65;99877.38;10288571;28;20050;-61
2023/06/09 17:43:14;;;;;;;5.15;2.67;;;;;;;37.49;21.72;99877.66;10277528;28;20264;-62
2023/06/09 17:48:19;;;;;;;5.43;2.42;;;;;;;37.45;21.97;99878.78;10280771;28;20046;-62
2023/06/09 17:53:20;;;;;;;4.05;2.47;;;;;;;37.29;22.20;99876.06;10261586;28;20039;-61
2023/06/09 17:58:22;;;;;;;3.58;2.83;;;;;;;37.19;22.15;99880.25;10297083;28;20042;-60
2023/06/09 18:03:23;;;;;;;4.68;2.58;;;;;;;37.08;22.09;99881.97;10273335;28;20043;-63
2023/06/09 18:08:25;;;;;;;3.72;2.45;;;;;;;37.03;22.21;99882.25;10282329;28;20055;-62
2023/06/09 18:13:26;;;;;;;2.38;2.13;;;;;;;36.64;22.59;99885.78;10269916;28;20050;-63
2023/06/09 18:18:28;;;;;;;3.28;2.35;;;;;;;35.90;23.27;99882.66;10276819;28;20057;-63
2023/06/09 18:23:29;;;;;;;4.50;3.10;;;;;;;35.12;24.77;99884.81;10293431;28;20457;-62
2023/06/09 18:28:31;;;;;;;4.25;2.90;;;;;;;34.43;24.98;99889.41;10288039;28;20449;-63
2023/06/09 18:33:33;;;;;;;7.32;2.90;;;;;;;33.72;26.35;99892.13;10285401;28;20062;-63
2023/06/09 18:38:34;;;;;;;12.10;4.97;;;;;;;33.07;27.03;99890.84;10268545;28;20042;-63
2023/06/09 18:43:37;;;;;;;5.40;3.78;;;;;;;32.50;28.12;99890.16;10269497;28;20048;-61
2023/06/09 18:48:40;;;;;;;3.90;3.42;;;;;;;31.92;28.97;99886.13;10280192;28;20394;-61
2023/06/09 18:53:57;;;;;;;9.80;5.30;;;;;;;31.34;29.69;99891.03;10283842;28;20042;-60
2023/06/09 18:58:59;;;;;;;5.25;3.40;;;;;;;30.90;30.57;99892.97;10292330;28;20137;-61
2023/06/09 19:04:00;;;;;;;10.25;4.47;;;;;;;30.36;31.18;99893.13;10283095;28;20525;-60
2023/06/09 19:09:03;;;;;;;8.55;3.50;;;;;;;29.86;31.87;99888.59;10285430;28;20121;-60
2023/06/09 19:14:06;;;;;;;5.65;3.92;;;;;;;29.40;32.25;99903.53;10285808;28;20055;-61
2023/06/09 19:19:08;;;;;;;3.67;3.35;;;;;;;28.97;32.93;99901.16;10297887;28;20054;-60
2023/06/09 19:24:09;;;;;;;7.13;3.50;;;;;;;28.53;34.11;99911.75;10286476;28;20557;-60
2023/06/09 19:29:11;;;;;;;4.88;4.20;;;;;;;28.17;34.55;99911.59;10285016;28;20046;-60
2023/06/09 19:34:12;;;;;;;8.25;3.78;;;;;;;27.89;35.21;99926.16;10282846;28;20058;-60
2023/06/09 19:39:14;;;;;;;5.22;4.03;;;;;;;27.70;36.11;99928.09;10271782;28;20053;-61
2023/06/09 19:44:15;;;;;;;6.80;4.30;;;;;;;27.35;36.68;99935.81;10296214;28;20091;-61
2023/06/09 19:49:16;;;;;;;5.70;4.38;;;;;;;27.12;37.47;99937.47;10289488;28;20065;-62
2023/06/09 19:54:18;;;;;;;6.10;4.70;;;;;;;26.84;37.75;99953.03;10296036;28;20169;-62
2023/06/09 19:59:20;;;;;;;5.15;4.65;;;;;;;26.58;38.81;99949.69;10295869;28;20138;-61
2023/06/09 20:04:21;;;;;;;9.48;5.32;;;;;;;26.37;38.89;99958.19;10290515;28;20050;-62
2023/06/09 20:09:25;;;;;;;6.50;4.47;;;;;;;26.12;39.78;99967.50;10299006;28;20051;-61
2023/06/09 20:14:27;;;;;;;5.28;4.45;;;;;;;25.88;39.86;99975.66;10297728;28;20045;-61
2023/06/09 20:19:29;;;;;;;7.05;4.97;;;;;;;25.59;41.15;99979.16;10291744;28;20050;-60
2023/06/09 20:24:31;;;;;;;6.72;4.55;;;;;;;25.32;41.81;99987.88;10298258;28;20046;-60
2023/06/09 20:29:33;;;;;;;7.07;5.32;;;;;;;25.10;42.08;99991.78;10297834;28;20061;-59
2023/06/09 20:34:35;;;;;;;10.30;5.72;;;;;;;24.87;42.85;100004.25;10287932;28;20051;-58
2023/06/09 20:39:37;;;;;;;7.32;6.45;;;;;;;24.71;43.00;99999.91;10280921;28;20066;-60
2023/06/09 20:44:38;;;;;;;5.82;5.22;;;;;;;24.55;43.55;100015.59;10293234;28;20066;-59
2023/06/09 20:49:41;;;;;;;7.90;4.80;;;;;;;24.38;43.40;100020.53;10289302;28;20051;-58
2023/06/09 20:54:43;;;;;;;9.55;5.70;;;;;;;24.24;44.00;100023.00;10289585;28;20039;-59
2023/06/09 20:59:45;;;;;;;7.35;4.93;;;;;;;24.16;44.07;100024.38;10269883;28;20114;-59
2023/06/09 21:04:47;;;;;;;7.70;5.32;;;;;;;24.04;44.36;100023.84;10290847;28;20437;-59
2023/06/09 21:09:49;;;;;;;6.88;4.57;;;;;;;23.94;44.49;100036.44;10288627;28;20109;-59
2023/06/09 21:14:50;;;;;;;7.38;5.15;;;;;;;23.76;44.86;100029.53;10290546;28;20043;-60
2023/06/09 21:19:52;;;;;;;8.00;5.70;;;;;;;23.61;44.89;100039.66;10287097;28;20051;-59
2023/06/09 21:24:53;;;;;;;5.70;5.10;;;;;;;23.50;45.17;100034.13;10272428;28;20062;-60
2023/06/09 21:29:55;;;;;;;6.95;5.30;;;;;;;23.41;44.80;100041.22;10291618;28;20055;-60
2023/06/09 21:34:56;;;;;;;8.00;6.47;;;;;;;23.32;45.43;100034.59;10279068;28;20047;-59
2023/06/09 21:39:58;;;;;;;8.25;5.20;;;;;;;23.26;45.46;100033.78;10286894;28;20047;-60
2023/06/09 21:44:59;;;;;;;7.15;5.50;;;;;;;23.17;45.63;100040.88;10285132;28;20066;-61
2023/06/09 21:50:01;;;;;;;7.68;5.93;;;;;;;23.12;45.78;100044.41;10282378;28;20059;-60
2023/06/09 21:55:07;;;;;;;7.53;5.05;;;;;;;23.07;46.05;100043.56;10289009;28;20042;-60
2023/06/09 22:00:12;;;;;;;6.65;5.35;;;;;;;23.01;45.62;100039.94;10289558;28;20054;-60
2023/06/09 22:05:14;;;;;;;9.82;5.18;;;;;;;22.96;45.88;100054.41;10282302;28;20089;-61
2023/06/09 22:10:16;;;;;;;6.78;5.30;;;;;;;22.92;46.26;100049.75;10288941;28;20070;-61
2023/06/09 22:15:17;;;;;;;6.65;5.30;;;;;;;22.87;46.34;100053.28;10293499;28;20054;-59
2023/06/09 22:20:20;;;;;;;7.13;5.97;;;;;;;22.78;46.53;100049.38;10289281;28;20046;-59
2023/06/09 22:25:22;;;;;;;9.75;5.32;;;;;;;22.74;46.52;100049.09;10285223;28;20052;-59
2023/06/09 22:30:23;;;;;;;5.65;5.03;;;;;;;22.74;46.47;100048.25;10282736;28;20047;-60
2023/06/09 22:35:25;;;;;;;8.68;5.75;;;;;;;22.70;46.63;100047.16;10283410;28;20042;-60
2023/06/09 22:40:26;;;;;;;9.80;5.40;;;;;;;22.68;46.61;100046.59;10289275;28;20491;-60
2023/06/09 22:45:28;;;;;;;6.35;5.32;;;;;;;22.66;46.59;100041.34;10280182;28;20066;-60
2023/06/09 22:50:29;;;;;;;5.72;5.07;;;;;;;22.66;46.98;100043.28;10287330;28;20054;-59
2023/06/09 22:55:30;;;;;;;6.97;5.45;;;;;;;22.62;46.89;100044.91;10302166;28;20061;-59
2023/06/09 23:00:32;;;;;;;6.78;5.20;;;;;;;22.62;46.83;100050.38;10308041;28;20057;-60
2023/06/09 23:05:39;;;;;;;5.68;5.18;;;;;;;22.59;46.89;100051.75;10300136;28;20046;-59
2023/06/09 23:10:41;;;;;;;6.63;5.60;;;;;;;22.55;47.23;100059.66;10298550;28;20053;-59
2023/06/09 23:15:43;;;;;;;7.53;5.30;;;;;;;22.48;47.37;100059.03;10303522;28;20490;-59